sensor_id;sensor_type;location;lat;lon;timestamp;P1;durP1;ratioP1;P2;durP2;ratioP2
6207;SDS011;3137;51.550;7.060;2023-04-09T00:00:35;54.27;;;27.90;;
6207;SDS011;3137;51.550;7.060;2023-04-09T00:03:02;40.17;;;25.67;;
6207;SDS011;3137;51.550;7.060;2023-04-09T00:05:29;49.10;;;29.20;;
6207;SDS011;3137;51.550;7.060;2023-04-09T00:07:55;49.47;;;27.80;;
6207;SDS011;3137;51.550;7.060;2023-04-09T00:10:22;45.43;;;26.87;;
6207;SDS011;3137;51.550;7.060;2023-04-09T00:12:48;48.03;;;27.40;;
6207;SDS011;3137;51.550;7.060;2023-04-09T00:15:14;54.80;;;28.57;;
6207;SDS011;3137;51.550;7.060;2023-04-09T00:17:56;45.73;;;28.40;;
6207;SDS011;3137;51.550;7.060;2023-04-09T00:20:22;52.47;;;29.57;;
6207;SDS011;3137;51.550;7.060;2023-04-09T00:22:48;53.17;;;29.93;;
6207;SDS011;3137;51.550;7.060;2023-04-09T00:25:16;54.30;;;29.73;;
6207;SDS011;3137;51.550;7.060;2023-04-09T00:27:43;49.63;;;29.73;;
6207;SDS011;3137;51.550;7.060;2023-04-09T00:30:09;51.97;;;28.17;;
6207;SDS011;3137;51.550;7.060;2023-04-09T00:32:36;50.10;;;27.97;;
6207;SDS011;3137;51.550;7.060;2023-04-09T00:35:03;52.53;;;27.90;;
6207;SDS011;3137;51.550;7.060;2023-04-09T00:37:29;49.77;;;26.73;;
6207;SDS011;3137;51.550;7.060;2023-04-09T00:39:56;67.97;;;28.27;;
6207;SDS011;3137;51.550;7.060;2023-04-09T00:42:22;54.27;;;30.80;;
6207;SDS011;3137;51.550;7.060;2023-04-09T00:44:48;57.20;;;29.53;;
6207;SDS011;3137;51.550;7.060;2023-04-09T00:47:15;49.47;;;28.77;;
6207;SDS011;3137;51.550;7.060;2023-04-09T00:49:42;56.40;;;30.50;;
6207;SDS011;3137;51.550;7.060;2023-04-09T00:52:09;56.27;;;29.07;;
6207;SDS011;3137;51.550;7.060;2023-04-09T00:54:36;52.43;;;30.07;;
6207;SDS011;3137;51.550;7.060;2023-04-09T00:57:02;49.77;;;29.30;;
6207;SDS011;3137;51.550;7.060;2023-04-09T00:59:28;43.67;;;27.93;;
6207;SDS011;3137;51.550;7.060;2023-04-09T01:01:55;57.20;;;29.67;;
6207;SDS011;3137;51.550;7.060;2023-04-09T01:04:21;55.73;;;30.10;;
6207;SDS011;3137;51.550;7.060;2023-04-09T01:06:54;57.03;;;30.13;;
6207;SDS011;3137;51.550;7.060;2023-04-09T01:09:36;49.73;;;27.77;;
6207;SDS011;3137;51.550;7.060;2023-04-09T01:12:20;60.17;;;29.63;;
6207;SDS011;3137;51.550;7.060;2023-04-09T01:15:04;50.27;;;29.27;;
6207;SDS011;3137;51.550;7.060;2023-04-09T01:17:34;59.93;;;29.60;;
6207;SDS011;3137;51.550;7.060;2023-04-09T01:20:13;57.57;;;27.60;;
6207;SDS011;3137;51.550;7.060;2023-04-09T01:23:00;58.70;;;29.10;;
6207;SDS011;3137;51.550;7.060;2023-04-09T01:25:42;49.57;;;26.80;;
6207;SDS011;3137;51.550;7.060;2023-04-09T01:28:35;49.33;;;27.87;;
6207;SDS011;3137;51.550;7.060;2023-04-09T01:31:12;50.17;;;27.10;;
6207;SDS011;3137;51.550;7.060;2023-04-09T01:33:41;44.93;;;27.40;;
6207;SDS011;3137;51.550;7.060;2023-04-09T01:36:08;54.07;;;28.73;;
6207;SDS011;3137;51.550;7.060;2023-04-09T01:38:36;48.57;;;27.67;;
6207;SDS011;3137;51.550;7.060;2023-04-09T01:41:06;49.97;;;27.47;;
6207;SDS011;3137;51.550;7.060;2023-04-09T01:43:49;46.90;;;27.37;;
6207;SDS011;3137;51.550;7.060;2023-04-09T01:46:16;44.37;;;27.87;;
6207;SDS011;3137;51.550;7.060;2023-04-09T01:48:44;52.87;;;27.40;;
6207;SDS011;3137;51.550;7.060;2023-04-09T01:51:12;47.27;;;26.70;;
6207;SDS011;3137;51.550;7.060;2023-04-09T01:53:40;50.07;;;27.93;;
6207;SDS011;3137;51.550;7.060;2023-04-09T01:56:07;49.00;;;26.23;;
6207;SDS011;3137;51.550;7.060;2023-04-09T01:58:34;55.07;;;27.27;;
6207;SDS011;3137;51.550;7.060;2023-04-09T02:01:04;46.13;;;25.30;;
6207;SDS011;3137;51.550;7.060;2023-04-09T02:03:45;51.30;;;27.60;;
6207;SDS011;3137;51.550;7.060;2023-04-09T02:09:06;55.53;;;28.13;;
6207;SDS011;3137;51.550;7.060;2023-04-09T02:11:36;52.40;;;26.90;;
6207;SDS011;3137;51.550;7.060;2023-04-09T02:14:05;57.53;;;28.70;;
6207;SDS011;3137;51.550;7.060;2023-04-09T02:16:36;50.63;;;27.30;;
6207;SDS011;3137;51.550;7.060;2023-04-09T02:19:04;50.17;;;27.30;;
6207;SDS011;3137;51.550;7.060;2023-04-09T02:21:30;51.03;;;28.03;;
6207;SDS011;3137;51.550;7.060;2023-04-09T02:23:57;51.77;;;25.13;;
6207;SDS011;3137;51.550;7.060;2023-04-09T02:26:24;52.60;;;26.23;;
6207;SDS011;3137;51.550;7.060;2023-04-09T02:28:50;47.67;;;25.97;;
6207;SDS011;3137;51.550;7.060;2023-04-09T02:31:17;46.13;;;27.37;;
6207;SDS011;3137;51.550;7.060;2023-04-09T02:33:44;50.80;;;27.40;;
6207;SDS011;3137;51.550;7.060;2023-04-09T02:36:10;50.93;;;27.83;;
6207;SDS011;3137;51.550;7.060;2023-04-09T02:38:41;46.30;;;25.60;;
6207;SDS011;3137;51.550;7.060;2023-04-09T02:41:08;47.13;;;27.53;;
6207;SDS011;3137;51.550;7.060;2023-04-09T02:43:35;50.37;;;28.30;;
6207;SDS011;3137;51.550;7.060;2023-04-09T02:46:01;56.53;;;28.43;;
6207;SDS011;3137;51.550;7.060;2023-04-09T02:48:29;56.83;;;27.93;;
6207;SDS011;3137;51.550;7.060;2023-04-09T02:50:56;54.97;;;28.47;;
6207;SDS011;3137;51.550;7.060;2023-04-09T02:53:22;56.07;;;28.17;;
6207;SDS011;3137;51.550;7.060;2023-04-09T02:55:48;52.77;;;28.53;;
6207;SDS011;3137;51.550;7.060;2023-04-09T02:58:15;57.80;;;29.33;;
6207;SDS011;3137;51.550;7.060;2023-04-09T03:00:41;64.53;;;31.93;;
6207;SDS011;3137;51.550;7.060;2023-04-09T03:03:08;62.77;;;30.50;;
6207;SDS011;3137;51.550;7.060;2023-04-09T03:05:35;64.30;;;30.20;;
6207;SDS011;3137;51.550;7.060;2023-04-09T03:08:02;59.70;;;30.57;;
6207;SDS011;3137;51.550;7.060;2023-04-09T03:10:29;61.67;;;30.57;;
6207;SDS011;3137;51.550;7.060;2023-04-09T03:12:55;56.33;;;31.10;;
6207;SDS011;3137;51.550;7.060;2023-04-09T03:15:21;66.73;;;32.27;;
6207;SDS011;3137;51.550;7.060;2023-04-09T03:17:48;66.50;;;31.77;;
6207;SDS011;3137;51.550;7.060;2023-04-09T03:20:14;57.03;;;30.77;;
6207;SDS011;3137;51.550;7.060;2023-04-09T03:22:41;62.70;;;31.37;;
6207;SDS011;3137;51.550;7.060;2023-04-09T03:25:20;62.83;;;32.60;;
6207;SDS011;3137;51.550;7.060;2023-04-09T03:27:49;60.93;;;29.90;;
6207;SDS011;3137;51.550;7.060;2023-04-09T03:30:24;59.40;;;29.90;;
6207;SDS011;3137;51.550;7.060;2023-04-09T03:32:51;66.97;;;31.73;;
6207;SDS011;3137;51.550;7.060;2023-04-09T03:35:18;61.27;;;30.70;;
6207;SDS011;3137;51.550;7.060;2023-04-09T03:37:45;60.10;;;32.67;;
6207;SDS011;3137;51.550;7.060;2023-04-09T03:40:16;59.90;;;30.37;;
6207;SDS011;3137;51.550;7.060;2023-04-09T03:42:42;61.90;;;31.03;;
6207;SDS011;3137;51.550;7.060;2023-04-09T03:45:11;64.73;;;32.93;;
6207;SDS011;3137;51.550;7.060;2023-04-09T03:47:42;61.73;;;31.23;;
6207;SDS011;3137;51.550;7.060;2023-04-09T03:50:09;62.43;;;32.53;;
6207;SDS011;3137;51.550;7.060;2023-04-09T03:52:46;53.17;;;29.50;;
6207;SDS011;3137;51.550;7.060;2023-04-09T03:55:12;56.13;;;30.13;;
6207;SDS011;3137;51.550;7.060;2023-04-09T03:57:39;58.67;;;30.23;;
6207;SDS011;3137;51.550;7.060;2023-04-09T04:00:09;58.87;;;29.93;;
6207;SDS011;3137;51.550;7.060;2023-04-09T04:02:48;66.33;;;30.97;;
6207;SDS011;3137;51.550;7.060;2023-04-09T04:05:21;61.23;;;30.77;;
6207;SDS011;3137;51.550;7.060;2023-04-09T04:07:50;70.43;;;33.17;;
6207;SDS011;3137;51.550;7.060;2023-04-09T04:10:24;65.70;;;31.77;;
6207;SDS011;3137;51.550;7.060;2023-04-09T04:12:50;55.47;;;29.03;;
6207;SDS011;3137;51.550;7.060;2023-04-09T04:15:24;67.87;;;31.80;;
6207;SDS011;3137;51.550;7.060;2023-04-09T04:17:53;59.20;;;32.67;;
6207;SDS011;3137;51.550;7.060;2023-04-09T04:20:36;64.00;;;31.97;;
6207;SDS011;3137;51.550;7.060;2023-04-09T04:23:10;67.60;;;31.67;;
6207;SDS011;3137;51.550;7.060;2023-04-09T04:25:45;67.60;;;32.33;;
6207;SDS011;3137;51.550;7.060;2023-04-09T04:28:16;64.47;;;33.43;;
6207;SDS011;3137;51.550;7.060;2023-04-09T04:30:42;58.67;;;31.20;;
6207;SDS011;3137;51.550;7.060;2023-04-09T04:33:09;61.47;;;30.37;;
6207;SDS011;3137;51.550;7.060;2023-04-09T04:35:42;69.43;;;33.03;;
6207;SDS011;3137;51.550;7.060;2023-04-09T04:38:25;62.53;;;31.93;;
6207;SDS011;3137;51.550;7.060;2023-04-09T04:40:52;63.03;;;31.20;;
6207;SDS011;3137;51.550;7.060;2023-04-09T04:43:20;62.93;;;32.03;;
6207;SDS011;3137;51.550;7.060;2023-04-09T04:45:48;69.67;;;34.23;;
6207;SDS011;3137;51.550;7.060;2023-04-09T04:48:14;62.80;;;32.03;;
6207;SDS011;3137;51.550;7.060;2023-04-09T04:50:41;69.20;;;33.43;;
6207;SDS011;3137;51.550;7.060;2023-04-09T04:53:08;71.07;;;31.70;;
6207;SDS011;3137;51.550;7.060;2023-04-09T04:55:42;67.43;;;32.00;;
6207;SDS011;3137;51.550;7.060;2023-04-09T04:58:12;60.23;;;31.03;;
6207;SDS011;3137;51.550;7.060;2023-04-09T05:00:46;62.70;;;30.87;;
6207;SDS011;3137;51.550;7.060;2023-04-09T05:03:13;59.67;;;30.83;;
6207;SDS011;3137;51.550;7.060;2023-04-09T05:05:51;61.50;;;31.80;;
6207;SDS011;3137;51.550;7.060;2023-04-09T05:08:19;64.40;;;31.93;;
6207;SDS011;3137;51.550;7.060;2023-04-09T05:10:48;68.07;;;31.70;;
6207;SDS011;3137;51.550;7.060;2023-04-09T05:13:18;64.27;;;31.03;;
6207;SDS011;3137;51.550;7.060;2023-04-09T05:15:44;55.87;;;31.20;;
6207;SDS011;3137;51.550;7.060;2023-04-09T05:18:11;63.70;;;32.30;;
6207;SDS011;3137;51.550;7.060;2023-04-09T05:20:38;67.73;;;32.43;;
6207;SDS011;3137;51.550;7.060;2023-04-09T05:23:06;63.77;;;33.63;;
6207;SDS011;3137;51.550;7.060;2023-04-09T05:25:39;68.10;;;33.27;;
6207;SDS011;3137;51.550;7.060;2023-04-09T05:28:11;75.87;;;34.30;;
6207;SDS011;3137;51.550;7.060;2023-04-09T05:30:39;71.00;;;34.60;;
6207;SDS011;3137;51.550;7.060;2023-04-09T05:33:07;68.07;;;33.17;;
6207;SDS011;3137;51.550;7.060;2023-04-09T05:35:36;71.70;;;33.33;;
6207;SDS011;3137;51.550;7.060;2023-04-09T05:38:04;65.43;;;33.57;;
6207;SDS011;3137;51.550;7.060;2023-04-09T05:40:30;77.63;;;34.83;;
6207;SDS011;3137;51.550;7.060;2023-04-09T05:42:56;70.17;;;34.33;;
6207;SDS011;3137;51.550;7.060;2023-04-09T05:45:35;78.27;;;37.13;;
6207;SDS011;3137;51.550;7.060;2023-04-09T05:48:02;82.43;;;37.57;;
6207;SDS011;3137;51.550;7.060;2023-04-09T05:50:29;81.17;;;36.03;;
6207;SDS011;3137;51.550;7.060;2023-04-09T05:53:03;81.97;;;37.80;;
6207;SDS011;3137;51.550;7.060;2023-04-09T05:55:36;76.80;;;37.93;;
6207;SDS011;3137;51.550;7.060;2023-04-09T05:58:03;77.57;;;36.53;;
6207;SDS011;3137;51.550;7.060;2023-04-09T06:00:29;76.60;;;35.83;;
6207;SDS011;3137;51.550;7.060;2023-04-09T06:02:55;84.23;;;39.80;;
6207;SDS011;3137;51.550;7.060;2023-04-09T06:05:22;77.90;;;38.43;;
6207;SDS011;3137;51.550;7.060;2023-04-09T06:07:49;88.90;;;39.57;;
6207;SDS011;3137;51.550;7.060;2023-04-09T06:10:16;85.20;;;39.17;;
6207;SDS011;3137;51.550;7.060;2023-04-09T06:12:42;88.30;;;39.90;;
6207;SDS011;3137;51.550;7.060;2023-04-09T06:15:09;84.93;;;39.67;;
6207;SDS011;3137;51.550;7.060;2023-04-09T06:17:35;78.93;;;39.83;;
6207;SDS011;3137;51.550;7.060;2023-04-09T06:20:02;81.20;;;38.63;;
6207;SDS011;3137;51.550;7.060;2023-04-09T06:22:29;87.27;;;39.90;;
6207;SDS011;3137;51.550;7.060;2023-04-09T06:24:55;76.27;;;37.87;;
6207;SDS011;3137;51.550;7.060;2023-04-09T06:27:21;80.33;;;39.17;;
6207;SDS011;3137;51.550;7.060;2023-04-09T06:29:48;83.80;;;40.53;;
6207;SDS011;3137;51.550;7.060;2023-04-09T06:32:15;88.20;;;41.23;;
6207;SDS011;3137;51.550;7.060;2023-04-09T06:34:41;81.53;;;39.67;;
6207;SDS011;3137;51.550;7.060;2023-04-09T06:37:08;74.63;;;37.97;;
6207;SDS011;3137;51.550;7.060;2023-04-09T06:39:34;68.97;;;36.93;;
6207;SDS011;3137;51.550;7.060;2023-04-09T06:42:03;80.53;;;37.43;;
6207;SDS011;3137;51.550;7.060;2023-04-09T06:44:37;82.00;;;37.50;;
6207;SDS011;3137;51.550;7.060;2023-04-09T06:47:03;74.47;;;36.43;;
6207;SDS011;3137;51.550;7.060;2023-04-09T06:49:29;74.23;;;34.97;;
6207;SDS011;3137;51.550;7.060;2023-04-09T06:51:56;72.67;;;36.83;;
6207;SDS011;3137;51.550;7.060;2023-04-09T06:54:22;67.73;;;35.27;;
6207;SDS011;3137;51.550;7.060;2023-04-09T06:56:49;65.47;;;36.13;;
6207;SDS011;3137;51.550;7.060;2023-04-09T06:59:15;63.40;;;33.93;;
6207;SDS011;3137;51.550;7.060;2023-04-09T07:01:42;66.43;;;33.03;;
6207;SDS011;3137;51.550;7.060;2023-04-09T07:04:08;60.83;;;31.03;;
6207;SDS011;3137;51.550;7.060;2023-04-09T07:06:35;55.67;;;30.23;;
6207;SDS011;3137;51.550;7.060;2023-04-09T07:09:02;57.63;;;30.83;;
6207;SDS011;3137;51.550;7.060;2023-04-09T07:11:28;56.50;;;30.17;;
6207;SDS011;3137;51.550;7.060;2023-04-09T07:13:54;57.40;;;30.67;;
6207;SDS011;3137;51.550;7.060;2023-04-09T07:16:21;53.40;;;29.93;;
6207;SDS011;3137;51.550;7.060;2023-04-09T07:18:48;48.60;;;29.50;;
6207;SDS011;3137;51.550;7.060;2023-04-09T07:21:15;50.90;;;29.20;;
6207;SDS011;3137;51.550;7.060;2023-04-09T07:23:42;45.37;;;26.87;;
6207;SDS011;3137;51.550;7.060;2023-04-09T07:26:08;47.77;;;27.87;;
6207;SDS011;3137;51.550;7.060;2023-04-09T07:28:35;40.30;;;25.20;;
6207;SDS011;3137;51.550;7.060;2023-04-09T07:31:02;46.37;;;26.67;;
6207;SDS011;3137;51.550;7.060;2023-04-09T07:33:28;44.93;;;27.67;;
6207;SDS011;3137;51.550;7.060;2023-04-09T07:35:55;40.60;;;26.00;;
6207;SDS011;3137;51.550;7.060;2023-04-09T07:38:21;47.90;;;26.30;;
6207;SDS011;3137;51.550;7.060;2023-04-09T07:40:48;44.27;;;26.23;;
6207;SDS011;3137;51.550;7.060;2023-04-09T07:43:14;45.87;;;26.30;;
6207;SDS011;3137;51.550;7.060;2023-04-09T07:45:41;41.53;;;25.50;;
6207;SDS011;3137;51.550;7.060;2023-04-09T07:48:09;44.60;;;25.60;;
6207;SDS011;3137;51.550;7.060;2023-04-09T07:50:36;46.40;;;26.70;;
6207;SDS011;3137;51.550;7.060;2023-04-09T07:53:03;43.97;;;25.67;;
6207;SDS011;3137;51.550;7.060;2023-04-09T07:55:29;43.33;;;26.17;;
6207;SDS011;3137;51.550;7.060;2023-04-09T07:57:56;40.73;;;26.20;;
6207;SDS011;3137;51.550;7.060;2023-04-09T08:00:22;39.10;;;25.50;;
6207;SDS011;3137;51.550;7.060;2023-04-09T08:02:48;41.77;;;24.80;;
6207;SDS011;3137;51.550;7.060;2023-04-09T08:05:16;39.60;;;23.97;;
6207;SDS011;3137;51.550;7.060;2023-04-09T08:07:42;38.83;;;24.43;;
6207;SDS011;3137;51.550;7.060;2023-04-09T08:10:09;34.73;;;23.67;;
6207;SDS011;3137;51.550;7.060;2023-04-09T08:12:40;34.30;;;21.90;;
6207;SDS011;3137;51.550;7.060;2023-04-09T08:15:06;32.50;;;22.83;;
6207;SDS011;3137;51.550;7.060;2023-04-09T08:17:33;32.17;;;22.30;;
6207;SDS011;3137;51.550;7.060;2023-04-09T08:20:02;28.03;;;21.23;;
6207;SDS011;3137;51.550;7.060;2023-04-09T08:22:32;37.97;;;19.03;;
6207;SDS011;3137;51.550;7.060;2023-04-09T08:24:59;29.47;;;20.87;;
6207;SDS011;3137;51.550;7.060;2023-04-09T08:27:28;27.50;;;18.93;;
6207;SDS011;3137;51.550;7.060;2023-04-09T08:29:54;25.63;;;18.73;;
6207;SDS011;3137;51.550;7.060;2023-04-09T08:32:20;26.43;;;19.10;;
6207;SDS011;3137;51.550;7.060;2023-04-09T08:34:47;24.97;;;18.10;;
6207;SDS011;3137;51.550;7.060;2023-04-09T08:37:13;20.10;;;15.90;;
6207;SDS011;3137;51.550;7.060;2023-04-09T08:39:39;21.53;;;15.73;;
6207;SDS011;3137;51.550;7.060;2023-04-09T08:42:06;18.00;;;14.93;;
6207;SDS011;3137;51.550;7.060;2023-04-09T08:44:33;19.57;;;15.47;;
6207;SDS011;3137;51.550;7.060;2023-04-09T08:46:59;16.53;;;14.40;;
6207;SDS011;3137;51.550;7.060;2023-04-09T08:49:26;14.77;;;13.50;;
6207;SDS011;3137;51.550;7.060;2023-04-09T08:51:53;15.63;;;14.00;;
6207;SDS011;3137;51.550;7.060;2023-04-09T08:54:19;14.63;;;13.23;;
6207;SDS011;3137;51.550;7.060;2023-04-09T08:56:46;16.10;;;13.33;;
6207;SDS011;3137;51.550;7.060;2023-04-09T08:59:16;20.97;;;14.10;;
6207;SDS011;3137;51.550;7.060;2023-04-09T09:01:43;14.10;;;12.80;;
6207;SDS011;3137;51.550;7.060;2023-04-09T09:04:13;15.30;;;11.97;;
6207;SDS011;3137;51.550;7.060;2023-04-09T09:06:39;14.50;;;13.00;;
6207;SDS011;3137;51.550;7.060;2023-04-09T09:09:07;14.17;;;12.67;;
6207;SDS011;3137;51.550;7.060;2023-04-09T09:14:09;12.10;;;11.30;;
6207;SDS011;3137;51.550;7.060;2023-04-09T09:16:40;11.73;;;10.73;;
6207;SDS011;3137;51.550;7.060;2023-04-09T09:19:30;11.83;;;10.93;;
6207;SDS011;3137;51.550;7.060;2023-04-09T09:21:59;11.70;;;10.77;;
6207;SDS011;3137;51.550;7.060;2023-04-09T09:24:27;12.33;;;11.27;;
6207;SDS011;3137;51.550;7.060;2023-04-09T09:26:53;11.03;;;10.20;;
6207;SDS011;3137;51.550;7.060;2023-04-09T09:29:20;12.60;;;11.43;;
6207;SDS011;3137;51.550;7.060;2023-04-09T09:31:53;10.10;;;9.40;;
6207;SDS011;3137;51.550;7.060;2023-04-09T09:34:21;10.50;;;9.70;;
6207;SDS011;3137;51.550;7.060;2023-04-09T09:36:50;10.73;;;10.03;;
6207;SDS011;3137;51.550;7.060;2023-04-09T09:39:16;10.43;;;9.73;;
6207;SDS011;3137;51.550;7.060;2023-04-09T09:41:43;9.03;;;8.53;;
6207;SDS011;3137;51.550;7.060;2023-04-09T09:44:12;9.60;;;9.13;;
6207;SDS011;3137;51.550;7.060;2023-04-09T09:46:56;8.80;;;8.30;;
6207;SDS011;3137;51.550;7.060;2023-04-09T09:49:24;7.67;;;7.37;;
6207;SDS011;3137;51.550;7.060;2023-04-09T09:51:50;8.50;;;8.03;;
6207;SDS011;3137;51.550;7.060;2023-04-09T09:54:18;8.50;;;8.10;;
6207;SDS011;3137;51.550;7.060;2023-04-09T09:56:47;9.23;;;8.43;;
6207;SDS011;3137;51.550;7.060;2023-04-09T09:59:21;8.07;;;7.67;;
6207;SDS011;3137;51.550;7.060;2023-04-09T10:01:55;8.27;;;7.87;;
6207;SDS011;3137;51.550;7.060;2023-04-09T10:04:34;7.43;;;7.20;;
6207;SDS011;3137;51.550;7.060;2023-04-09T10:07:04;8.00;;;7.57;;
6207;SDS011;3137;51.550;7.060;2023-04-09T10:09:32;8.17;;;7.77;;
6207;SDS011;3137;51.550;7.060;2023-04-09T10:12:00;8.80;;;8.40;;
6207;SDS011;3137;51.550;7.060;2023-04-09T10:14:29;8.77;;;8.27;;
6207;SDS011;3137;51.550;7.060;2023-04-09T10:16:56;9.13;;;8.60;;
6207;SDS011;3137;51.550;7.060;2023-04-09T10:19:23;9.23;;;8.80;;
6207;SDS011;3137;51.550;7.060;2023-04-09T10:21:50;7.50;;;7.30;;
6207;SDS011;3137;51.550;7.060;2023-04-09T10:24:22;8.93;;;8.33;;
6207;SDS011;3137;51.550;7.060;2023-04-09T10:26:52;8.43;;;8.13;;
6207;SDS011;3137;51.550;7.060;2023-04-09T10:29:26;8.23;;;7.93;;
6207;SDS011;3137;51.550;7.060;2023-04-09T10:32:02;7.70;;;7.30;;
6207;SDS011;3137;51.550;7.060;2023-04-09T10:34:33;8.43;;;8.03;;
6207;SDS011;3137;51.550;7.060;2023-04-09T10:37:28;8.07;;;7.67;;
6207;SDS011;3137;51.550;7.060;2023-04-09T10:39:55;8.90;;;8.60;;
6207;SDS011;3137;51.550;7.060;2023-04-09T10:42:24;8.33;;;7.83;;
6207;SDS011;3137;51.550;7.060;2023-04-09T10:47:35;8.43;;;8.10;;
6207;SDS011;3137;51.550;7.060;2023-04-09T10:52:57;7.10;;;6.80;;
6207;SDS011;3137;51.550;7.060;2023-04-09T10:55:35;7.63;;;7.33;;
6207;SDS011;3137;51.550;7.060;2023-04-09T10:58:03;7.17;;;6.97;;
6207;SDS011;3137;51.550;7.060;2023-04-09T11:00:32;8.70;;;7.93;;
6207;SDS011;3137;51.550;7.060;2023-04-09T11:05:36;9.07;;;8.77;;
6207;SDS011;3137;51.550;7.060;2023-04-09T11:08:04;7.70;;;7.50;;
6207;SDS011;3137;51.550;7.060;2023-04-09T11:10:42;7.77;;;7.27;;
6207;SDS011;3137;51.550;7.060;2023-04-09T11:13:10;8.10;;;7.60;;
6207;SDS011;3137;51.550;7.060;2023-04-09T11:15:38;8.40;;;8.00;;
6207;SDS011;3137;51.550;7.060;2023-04-09T11:18:05;7.70;;;7.60;;
6207;SDS011;3137;51.550;7.060;2023-04-09T11:20:32;8.53;;;8.13;;
6207;SDS011;3137;51.550;7.060;2023-04-09T11:22:59;7.80;;;7.40;;
6207;SDS011;3137;51.550;7.060;2023-04-09T11:25:27;8.10;;;7.80;;
6207;SDS011;3137;51.550;7.060;2023-04-09T11:27:54;7.30;;;7.10;;
6207;SDS011;3137;51.550;7.060;2023-04-09T11:30:21;7.40;;;6.93;;
6207;SDS011;3137;51.550;7.060;2023-04-09T11:32:48;7.83;;;7.50;;
6207;SDS011;3137;51.550;7.060;2023-04-09T11:35:16;8.30;;;8.10;;
6207;SDS011;3137;51.550;7.060;2023-04-09T11:37:44;7.43;;;7.17;;
6207;SDS011;3137;51.550;7.060;2023-04-09T11:40:21;8.17;;;7.87;;
6207;SDS011;3137;51.550;7.060;2023-04-09T11:42:50;6.93;;;6.73;;
6207;SDS011;3137;51.550;7.060;2023-04-09T11:45:19;7.87;;;7.67;;
6207;SDS011;3137;51.550;7.060;2023-04-09T11:47:49;7.53;;;7.33;;
6207;SDS011;3137;51.550;7.060;2023-04-09T11:50:17;7.70;;;7.40;;
6207;SDS011;3137;51.550;7.060;2023-04-09T11:52:45;7.70;;;7.40;;
6207;SDS011;3137;51.550;7.060;2023-04-09T11:55:12;6.87;;;6.67;;
6207;SDS011;3137;51.550;7.060;2023-04-09T11:57:49;8.03;;;7.70;;
6207;SDS011;3137;51.550;7.060;2023-04-09T12:00:17;7.40;;;7.03;;
6207;SDS011;3137;51.550;7.060;2023-04-09T12:02:45;7.13;;;6.97;;
6207;SDS011;3137;51.550;7.060;2023-04-09T12:05:20;7.43;;;7.23;;
6207;SDS011;3137;51.550;7.060;2023-04-09T12:07:48;7.30;;;7.10;;
6207;SDS011;3137;51.550;7.060;2023-04-09T12:10:25;7.67;;;7.37;;
6207;SDS011;3137;51.550;7.060;2023-04-09T12:12:53;7.00;;;6.80;;
6207;SDS011;3137;51.550;7.060;2023-04-09T12:15:21;7.03;;;6.73;;
6207;SDS011;3137;51.550;7.060;2023-04-09T12:17:50;6.77;;;6.67;;
6207;SDS011;3137;51.550;7.060;2023-04-09T12:20:26;7.67;;;7.20;;
6207;SDS011;3137;51.550;7.060;2023-04-09T12:22:54;6.83;;;6.63;;
6207;SDS011;3137;51.550;7.060;2023-04-09T12:25:21;8.60;;;7.97;;
6207;SDS011;3137;51.550;7.060;2023-04-09T12:27:48;8.33;;;8.03;;
6207;SDS011;3137;51.550;7.060;2023-04-09T12:30:14;7.73;;;7.43;;
6207;SDS011;3137;51.550;7.060;2023-04-09T12:32:41;8.00;;;7.60;;
6207;SDS011;3137;51.550;7.060;2023-04-09T12:35:09;8.13;;;7.47;;
6207;SDS011;3137;51.550;7.060;2023-04-09T12:37:36;8.43;;;8.13;;
6207;SDS011;3137;51.550;7.060;2023-04-09T12:40:02;9.13;;;8.67;;
6207;SDS011;3137;51.550;7.060;2023-04-09T12:42:29;7.83;;;7.50;;
6207;SDS011;3137;51.550;7.060;2023-04-09T12:44:56;8.40;;;8.00;;
6207;SDS011;3137;51.550;7.060;2023-04-09T12:47:22;6.97;;;6.77;;
6207;SDS011;3137;51.550;7.060;2023-04-09T12:49:48;8.20;;;7.90;;
6207;SDS011;3137;51.550;7.060;2023-04-09T12:52:15;8.37;;;8.07;;
6207;SDS011;3137;51.550;7.060;2023-04-09T12:54:43;7.03;;;6.83;;
6207;SDS011;3137;51.550;7.060;2023-04-09T12:57:10;7.67;;;7.47;;
6207;SDS011;3137;51.550;7.060;2023-04-09T12:59:36;7.67;;;7.47;;
6207;SDS011;3137;51.550;7.060;2023-04-09T13:02:03;7.57;;;7.37;;
6207;SDS011;3137;51.550;7.060;2023-04-09T13:04:29;7.67;;;7.47;;
6207;SDS011;3137;51.550;7.060;2023-04-09T13:06:56;7.43;;;7.23;;
6207;SDS011;3137;51.550;7.060;2023-04-09T13:09:22;8.50;;;8.20;;
6207;SDS011;3137;51.550;7.060;2023-04-09T13:11:49;7.70;;;7.40;;
6207;SDS011;3137;51.550;7.060;2023-04-09T13:14:15;8.47;;;8.07;;
6207;SDS011;3137;51.550;7.060;2023-04-09T13:16:42;7.63;;;7.33;;
6207;SDS011;3137;51.550;7.060;2023-04-09T13:19:08;8.43;;;7.87;;
6207;SDS011;3137;51.550;7.060;2023-04-09T13:21:35;8.10;;;7.80;;
6207;SDS011;3137;51.550;7.060;2023-04-09T13:24:02;7.63;;;7.40;;
6207;SDS011;3137;51.550;7.060;2023-04-09T13:26:29;7.23;;;7.07;;
6207;SDS011;3137;51.550;7.060;2023-04-09T13:28:56;7.83;;;7.63;;
6207;SDS011;3137;51.550;7.060;2023-04-09T13:31:23;8.03;;;7.63;;
6207;SDS011;3137;51.550;7.060;2023-04-09T13:33:50;6.90;;;6.73;;
6207;SDS011;3137;51.550;7.060;2023-04-09T13:36:16;6.93;;;6.67;;
6207;SDS011;3137;51.550;7.060;2023-04-09T13:38:43;7.73;;;7.53;;
6207;SDS011;3137;51.550;7.060;2023-04-09T13:41:09;7.70;;;7.37;;
6207;SDS011;3137;51.550;7.060;2023-04-09T13:43:36;8.33;;;7.93;;
6207;SDS011;3137;51.550;7.060;2023-04-09T13:46:02;7.97;;;7.77;;
6207;SDS011;3137;51.550;7.060;2023-04-09T13:48:29;8.10;;;7.70;;
6207;SDS011;3137;51.550;7.060;2023-04-09T13:50:56;7.50;;;7.30;;
6207;SDS011;3137;51.550;7.060;2023-04-09T13:53:22;7.47;;;7.17;;
6207;SDS011;3137;51.550;7.060;2023-04-09T13:55:50;7.63;;;7.43;;
6207;SDS011;3137;51.550;7.060;2023-04-09T13:58:16;8.30;;;8.00;;
6207;SDS011;3137;51.550;7.060;2023-04-09T14:00:43;7.10;;;6.90;;
6207;SDS011;3137;51.550;7.060;2023-04-09T14:03:09;6.90;;;6.70;;
6207;SDS011;3137;51.550;7.060;2023-04-09T14:05:36;7.60;;;7.30;;
6207;SDS011;3137;51.550;7.060;2023-04-09T14:08:02;8.53;;;8.03;;
6207;SDS011;3137;51.550;7.060;2023-04-09T14:10:29;8.43;;;8.13;;
6207;SDS011;3137;51.550;7.060;2023-04-09T14:12:55;7.60;;;7.40;;
6207;SDS011;3137;51.550;7.060;2023-04-09T14:15:22;8.13;;;7.77;;
6207;SDS011;3137;51.550;7.060;2023-04-09T14:17:48;8.03;;;7.73;;
6207;SDS011;3137;51.550;7.060;2023-04-09T14:20:15;8.00;;;7.47;;
6207;SDS011;3137;51.550;7.060;2023-04-09T14:22:41;8.07;;;7.80;;
6207;SDS011;3137;51.550;7.060;2023-04-09T14:25:08;8.40;;;8.00;;
6207;SDS011;3137;51.550;7.060;2023-04-09T14:27:34;8.80;;;8.20;;
6207;SDS011;3137;51.550;7.060;2023-04-09T14:30:01;8.83;;;8.43;;
6207;SDS011;3137;51.550;7.060;2023-04-09T14:32:28;9.00;;;8.40;;
6207;SDS011;3137;51.550;7.060;2023-04-09T14:34:55;8.23;;;7.87;;
6207;SDS011;3137;51.550;7.060;2023-04-09T14:37:21;7.63;;;7.20;;
6207;SDS011;3137;51.550;7.060;2023-04-09T14:39:48;7.87;;;7.57;;
6207;SDS011;3137;51.550;7.060;2023-04-09T14:42:14;7.00;;;6.90;;
6207;SDS011;3137;51.550;7.060;2023-04-09T14:44:40;7.60;;;7.40;;
6207;SDS011;3137;51.550;7.060;2023-04-09T14:47:07;8.27;;;7.87;;
6207;SDS011;3137;51.550;7.060;2023-04-09T14:49:33;7.20;;;6.77;;
6207;SDS011;3137;51.550;7.060;2023-04-09T14:52:00;7.27;;;6.90;;
6207;SDS011;3137;51.550;7.060;2023-04-09T14:54:26;7.50;;;7.17;;
6207;SDS011;3137;51.550;7.060;2023-04-09T14:56:55;7.13;;;6.93;;
6207;SDS011;3137;51.550;7.060;2023-04-09T14:59:23;8.37;;;8.00;;
6207;SDS011;3137;51.550;7.060;2023-04-09T15:01:50;7.73;;;7.53;;
6207;SDS011;3137;51.550;7.060;2023-04-09T15:04:18;7.43;;;7.07;;
6207;SDS011;3137;51.550;7.060;2023-04-09T15:06:44;7.70;;;7.47;;
6207;SDS011;3137;51.550;7.060;2023-04-09T15:09:10;7.63;;;7.33;;
6207;SDS011;3137;51.550;7.060;2023-04-09T15:11:37;7.70;;;7.50;;
6207;SDS011;3137;51.550;7.060;2023-04-09T15:14:03;7.20;;;7.00;;
6207;SDS011;3137;51.550;7.060;2023-04-09T15:16:29;7.10;;;6.90;;
6207;SDS011;3137;51.550;7.060;2023-04-09T15:18:58;7.47;;;7.07;;